createdAt,value
2018-04-17T00:00:02.225Z,93.70
2018-04-17T00:02:30.535Z,93.70
2018-04-17T00:04:58.913Z,93.70
2018-04-17T00:07:27.972Z,93.90
2018-04-17T00:09:56.267Z,93.80
2018-04-17T00:12:24.566Z,93.80
2018-04-17T00:14:53.624Z,94.10
2018-04-17T00:17:21.922Z,94.10
2018-04-17T00:19:50.209Z,94.10
2018-04-17T00:22:19.275Z,94.10
2018-04-17T00:24:47.569Z,94.10
2018-04-17T00:27:15.862Z,94.20
2018-04-17T00:29:44.925Z,94.50
2018-04-17T00:32:13.318Z,94.50
2018-04-17T00:34:41.702Z,94.50
2018-04-17T00:37:10.783Z,95.00
2018-04-17T00:39:39.838Z,94.80
2018-04-17T00:42:08.160Z,94.80
2018-04-17T00:44:37.979Z,95.30
2018-04-17T00:47:06.271Z,95.30
2018-04-17T00:49:34.629Z,95.00
2018-04-17T00:52:03.005Z,95.30
2018-04-17T00:54:32.811Z,95.10
2018-04-17T00:57:01.190Z,95.10
2018-04-17T00:59:29.490Z,95.00
2018-04-17T01:01:58.555Z,94.30
2018-04-17T01:04:26.859Z,94.30
2018-04-17T01:06:55.939Z,93.80
2018-04-17T01:09:24.316Z,93.80
2018-04-17T01:11:52.696Z,93.60
2018-04-17T01:14:20.991Z,93.60
2018-04-17T01:16:50.080Z,93.40
2018-04-17T01:19:19.264Z,93.50
2018-04-17T01:21:47.640Z,93.50
2018-04-17T01:24:15.969Z,93.10
2018-04-17T01:26:44.263Z,93.00
2018-04-17T01:29:12.560Z,93.00
2018-04-17T01:31:40.882Z,93.00
2018-04-17T01:34:09.163Z,92.70
2018-04-17T01:36:37.479Z,92.70
2018-04-17T01:39:05.768Z,92.60
2018-04-17T01:41:34.152Z,92.60
2018-04-17T01:44:02.452Z,92.70
2018-04-17T01:46:31.516Z,92.70
2018-04-17T01:48:59.842Z,92.70
2018-04-17T01:51:28.175Z,92.80
2018-04-17T01:53:56.652Z,92.70
2018-04-17T01:56:25.041Z,93.00
2018-04-17T01:58:54.140Z,93.10
2018-04-17T02:01:23.236Z,92.60
2018-04-17T02:03:52.320Z,92.50
2018-04-17T02:06:20.700Z,92.50
2018-04-17T02:08:49.079Z,92.70
2018-04-17T02:11:17.461Z,92.50
2018-04-17T02:13:46.554Z,92.30
2018-04-17T02:16:14.853Z,92.10
2018-04-17T02:18:43.215Z,92.00
2018-04-17T02:21:12.295Z,92.30
2018-04-17T02:23:42.131Z,92.40
2018-04-17T02:26:11.219Z,92.60
2018-04-17T02:28:40.296Z,92.80
2018-04-17T02:31:08.680Z,92.80
2018-04-17T02:33:37.776Z,92.90
2018-04-17T02:36:06.141Z,92.50
2018-04-17T02:38:34.528Z,92.60
2018-04-17T02:41:02.840Z,92.50
2018-04-17T02:43:31.136Z,92.40
2018-04-17T02:45:59.449Z,92.00
2018-04-17T02:48:27.841Z,92.10
2018-04-17T02:50:56.909Z,92.60
2018-04-17T02:53:25.218Z,92.20
2018-04-17T02:55:54.283Z,92.60
2018-04-17T02:58:22.679Z,92.50
2018-04-17T03:00:51.745Z,93.10
2018-04-17T03:03:20.159Z,93.10
2018-04-17T03:05:49.224Z,93.40
2018-04-17T03:08:17.534Z,93.40
2018-04-17T03:10:46.600Z,93.70
2018-04-17T03:13:14.902Z,93.70
2018-04-17T03:15:43.995Z,93.80
2018-04-17T03:18:13.055Z,93.90
2018-04-17T03:20:41.354Z,93.90
2018-04-17T03:23:09.733Z,93.90
2018-04-17T03:25:38.023Z,93.90
2018-04-17T03:28:07.074Z,94.00
2018-04-17T03:30:35.380Z,94.00
2018-04-17T03:33:03.768Z,94.10
2018-04-17T03:35:32.833Z,94.00
2018-04-17T03:38:01.122Z,94.00
2018-04-17T03:40:29.430Z,94.10
2018-04-17T03:42:58.476Z,93.90
2018-04-17T03:45:26.871Z,93.90
2018-04-17T03:47:55.159Z,93.90
2018-04-17T03:50:24.237Z,93.70
2018-04-17T03:52:52.520Z,93.70
2018-04-17T03:55:20.837Z,93.70
2018-04-17T03:57:49.108Z,93.80
2018-04-17T04:00:17.455Z,93.60
2018-04-17T04:02:45.756Z,93.70
2018-04-17T04:05:14.810Z,93.50
2018-04-17T04:07:43.098Z,93.50
2018-04-17T04:10:11.384Z,93.50
2018-04-17T04:12:40.435Z,93.50
2018-04-17T04:15:08.707Z,93.50
2018-04-17T04:17:48.862Z,93.50
2018-04-17T04:20:28.991Z,93.40
2018-04-17T04:23:09.311Z,93.30
2018-04-17T04:28:48.119Z,93.10
2018-04-17T04:31:16.400Z,93.10
2018-04-17T04:33:44.708Z,92.90
2018-04-17T04:36:13.764Z,92.60
2018-04-17T04:38:42.056Z,92.60
2018-04-17T04:41:10.451Z,92.40
2018-04-17T04:43:38.743Z,92.10
2018-04-17T04:46:07.916Z,91.70
2018-04-17T04:48:36.292Z,91.80
2018-04-17T04:51:04.586Z,91.40
2018-04-17T04:53:33.663Z,90.70
2018-04-17T04:56:01.968Z,90.70
2018-04-17T04:58:30.328Z,90.40
2018-04-17T05:00:59.416Z,89.50
2018-04-17T05:03:28.510Z,88.10
2018-04-17T05:05:58.336Z,87.10
2018-04-17T05:08:27.392Z,85.80
2018-04-17T05:10:55.698Z,85.80
2018-04-17T05:13:24.747Z,83.50
2018-04-17T05:15:53.040Z,83.50
2018-04-17T05:18:21.439Z,81.30
2018-04-17T05:20:49.741Z,79.00
2018-04-17T05:23:18.804Z,74.10
2018-04-17T05:25:47.096Z,74.00
2018-04-17T05:28:16.139Z,66.40
2018-04-17T05:30:44.465Z,66.30
2018-04-17T05:33:12.739Z,63.80
2018-04-17T05:35:41.116Z,60.50
2018-04-17T05:38:09.416Z,57.80
2018-04-17T05:40:38.461Z,54.00
2018-04-17T05:43:06.854Z,53.90
2018-04-17T05:45:35.232Z,52.00
2018-04-17T05:48:03.607Z,50.90
2018-04-17T05:50:31.902Z,49.50
2018-04-17T05:53:00.216Z,47.70
2018-04-17T05:55:28.504Z,46.20
2018-04-17T05:57:56.753Z,44.80
2018-04-17T06:00:24.993Z,46.20
2018-04-17T06:02:54.031Z,45.90
2018-04-17T06:05:22.280Z,45.90
2018-04-17T06:07:50.533Z,47.20
2018-04-17T06:10:19.549Z,48.10
2018-04-17T06:12:47.810Z,48.10
2018-04-17T06:15:16.819Z,47.30
2018-04-17T06:17:45.125Z,47.30
2018-04-17T06:20:13.403Z,48.00
2018-04-17T06:22:41.710Z,47.30
2018-04-17T06:25:09.957Z,46.60
2018-04-17T06:27:38.259Z,45.50
2018-04-17T06:30:06.500Z,46.30
2018-04-17T06:32:34.738Z,45.70
2018-04-17T06:35:03.042Z,44.40
2018-04-17T06:37:31.315Z,44.20
2018-04-17T06:39:59.578Z,43.90
2018-04-17T06:42:27.827Z,42.90
2018-04-17T06:44:56.840Z,42.60
2018-04-17T06:47:31.158Z,42.50
2018-04-17T06:49:59.402Z,42.50
2018-04-17T06:52:28.443Z,45.60
2018-04-17T06:54:56.729Z,45.10
2018-04-17T06:57:25.005Z,43.60
2018-04-17T06:59:53.271Z,43.60
2018-04-17T07:02:21.511Z,41.70
2018-04-17T07:04:50.644Z,41.90
2018-04-17T07:07:18.887Z,41.80
2018-04-17T07:09:47.913Z,41.60
2018-04-17T07:12:16.155Z,41.70
2018-04-17T07:14:45.167Z,42.70
2018-04-17T07:17:13.407Z,42.80
2018-04-17T07:19:42.450Z,43.50
2018-04-17T07:22:10.713Z,43.50
2018-04-17T07:24:39.037Z,43.50
2018-04-17T07:27:07.269Z,41.60
2018-04-17T07:29:35.512Z,41.00
2018-04-17T07:32:04.523Z,43.90
2018-04-17T07:34:32.772Z,44.00
2018-04-17T07:37:01.789Z,43.60
2018-04-17T07:39:30.035Z,43.50
2018-04-17T07:41:59.118Z,42.30
2018-04-17T07:44:27.343Z,42.70
2018-04-17T07:47:07.432Z,42.50
2018-04-17T07:49:35.678Z,41.90
2018-04-17T07:52:03.930Z,43.20
2018-04-17T07:54:32.948Z,43.10
2018-04-17T07:57:01.192Z,43.70
2018-04-17T07:59:29.434Z,41.90
2018-04-17T08:01:57.693Z,42.70
2018-04-17T08:04:25.928Z,43.40
2018-04-17T08:06:54.263Z,43.50
2018-04-17T08:09:22.481Z,44.10
2018-04-17T08:11:50.733Z,42.30
2018-04-17T08:14:18.968Z,42.80
2018-04-17T08:16:47.212Z,44.30
2018-04-17T08:19:15.469Z,42.80
2018-04-17T08:21:44.492Z,41.90
2018-04-17T08:24:12.740Z,41.80
2018-04-17T08:26:41.052Z,41.60
2018-04-17T08:29:10.068Z,42.60
2018-04-17T08:31:38.308Z,42.60
2018-04-17T08:34:06.556Z,43.80
2018-04-17T08:36:34.791Z,45.00
2018-04-17T08:39:03.045Z,46.20
2018-04-17T08:41:31.293Z,47.10
2018-04-17T08:43:59.564Z,48.10
2018-04-17T08:46:27.808Z,46.10
2018-04-17T08:48:56.836Z,46.70
2018-04-17T08:51:25.067Z,46.70
2018-04-17T08:53:53.300Z,47.20
2018-04-17T08:56:21.545Z,47.00
2018-04-17T08:58:49.820Z,47.50
2018-04-17T09:01:18.077Z,47.10
2018-04-17T09:03:46.322Z,48.70
2018-04-17T09:06:14.565Z,46.60
2018-04-17T09:08:42.809Z,45.90
2018-04-17T09:11:11.166Z,47.40
2018-04-17T09:13:39.391Z,48.50
2018-04-17T09:16:07.648Z,46.90
2018-04-17T09:18:35.908Z,44.60
2018-04-17T09:21:04.915Z,43.90
2018-04-17T09:23:33.151Z,43.90
2018-04-17T09:26:01.407Z,44.90
2018-04-17T09:28:29.635Z,44.70
2018-04-17T09:30:57.908Z,44.10
2018-04-17T09:33:26.933Z,44.70
2018-04-17T09:35:55.212Z,44.80
2018-04-17T09:38:23.435Z,47.80
2018-04-17T09:40:52.450Z,48.50
2018-04-17T09:43:21.460Z,46.50
2018-04-17T09:45:49.704Z,46.50
2018-04-17T09:48:18.729Z,46.50
2018-04-17T09:50:46.976Z,46.50
2018-04-17T09:53:15.999Z,50.80
2018-04-17T09:55:44.240Z,50.80
2018-04-17T09:58:13.256Z,50.90
2018-04-17T10:03:43.188Z,46.20
2018-04-17T10:06:11.489Z,46.20
2018-04-17T10:08:39.750Z,44.70
2018-04-17T10:11:07.992Z,44.20
2018-04-17T10:13:37.003Z,44.50
2018-04-17T10:16:05.244Z,44.50
2018-04-17T10:18:33.500Z,46.30
2018-04-17T10:21:02.508Z,48.10
2018-04-17T10:23:30.765Z,48.10
2018-04-17T10:25:59.044Z,47.90
2018-04-17T10:28:27.395Z,49.20
2018-04-17T10:30:55.678Z,49.90
2018-04-17T10:33:24.053Z,51.80
2018-04-17T10:35:52.300Z,48.60
2018-04-17T10:38:21.797Z,48.00
2018-04-17T10:40:50.819Z,49.20
2018-04-17T10:43:19.111Z,49.10
2018-04-17T10:45:47.385Z,50.00
2018-04-17T10:48:15.659Z,51.70
2018-04-17T10:50:43.907Z,53.10
2018-04-17T10:53:12.156Z,53.30
2018-04-17T10:55:41.182Z,53.50
2018-04-17T10:58:09.428Z,53.50
2018-04-17T11:00:38.454Z,53.70
2018-04-17T11:03:06.705Z,53.70
2018-04-17T11:05:34.969Z,54.30
2018-04-17T11:08:04.088Z,52.10
2018-04-17T11:10:32.345Z,52.10
2018-04-17T11:13:01.372Z,53.70
2018-04-17T11:15:29.620Z,53.70
2018-04-17T11:17:57.877Z,51.10
2018-04-17T11:20:26.898Z,52.40
2018-04-17T11:22:55.152Z,52.40
2018-04-17T11:25:24.289Z,53.50
2018-04-17T11:27:52.536Z,53.50
2018-04-17T11:30:20.784Z,53.60
2018-04-17T11:32:49.112Z,56.30
2018-04-17T11:35:17.370Z,53.90
2018-04-17T11:37:45.620Z,53.30
2018-04-17T11:40:14.645Z,52.30
2018-04-17T11:42:42.892Z,52.40
2018-04-17T11:45:11.899Z,54.50
2018-04-17T11:47:40.472Z,54.50
2018-04-17T11:50:09.504Z,53.90
2018-04-17T11:52:37.762Z,53.90
2018-04-17T11:55:06.012Z,54.50
2018-04-17T11:57:35.120Z,54.00
2018-04-17T12:00:04.861Z,53.90
2018-04-17T12:02:33.112Z,53.80
2018-04-17T12:05:01.414Z,56.00
2018-04-17T12:07:29.785Z,54.60
2018-04-17T12:09:58.032Z,57.00
2018-04-17T12:12:26.338Z,54.20
2018-04-17T12:14:54.597Z,53.70
2018-04-17T12:17:22.894Z,53.90
2018-04-17T12:19:51.160Z,55.10
2018-04-17T12:22:19.422Z,53.90
2018-04-17T12:24:47.711Z,54.40
2018-04-17T12:27:15.973Z,53.50
2018-04-17T12:29:44.968Z,54.20
2018-04-17T12:32:13.230Z,54.20
2018-04-17T12:34:41.476Z,54.40
2018-04-17T12:37:09.741Z,55.20
2018-04-17T12:39:38.075Z,54.50
2018-04-17T12:42:06.319Z,54.10
2018-04-17T12:44:35.340Z,54.70
2018-04-17T12:47:03.592Z,54.70
2018-04-17T12:49:32.606Z,55.40
2018-04-17T12:52:00.919Z,55.40
2018-04-17T12:54:29.877Z,55.60
2018-04-17T12:56:58.125Z,55.70
2018-04-17T12:59:26.433Z,55.10
2018-04-17T13:01:54.681Z,55.80
2018-04-17T13:04:22.927Z,55.70
2018-04-17T13:06:51.272Z,55.90
2018-04-17T13:09:19.635Z,55.10
2018-04-17T13:11:47.890Z,55.70
2018-04-17T13:14:16.149Z,55.10
2018-04-17T13:16:45.184Z,54.40
2018-04-17T13:19:13.452Z,54.40
2018-04-17T13:21:41.728Z,55.40
2018-04-17T13:24:09.980Z,56.40
2018-04-17T13:26:38.246Z,56.20
2018-04-17T13:29:07.276Z,54.70
2018-04-17T13:31:35.527Z,54.80
2018-04-17T13:34:03.782Z,55.00
2018-04-17T13:36:32.801Z,56.10
2018-04-17T13:39:01.049Z,56.10
2018-04-17T13:41:30.064Z,56.90
2018-04-17T13:43:58.365Z,56.10
2018-04-17T13:46:26.640Z,56.60
2018-04-17T13:48:54.884Z,57.00
2018-04-17T13:51:23.913Z,56.80
2018-04-17T13:53:52.187Z,56.80
2018-04-17T13:56:20.428Z,56.70
2018-04-17T13:58:48.731Z,56.30
2018-04-17T14:01:16.984Z,55.30
2018-04-17T14:03:45.247Z,56.20
2018-04-17T14:06:14.276Z,56.80
2018-04-17T14:08:42.548Z,56.80
2018-04-17T14:11:10.799Z,56.00
2018-04-17T14:13:39.055Z,55.40
2018-04-17T14:16:08.100Z,54.80
2018-04-17T14:18:36.381Z,54.80
2018-04-17T14:21:04.602Z,56.60
2018-04-17T14:23:33.646Z,56.00
2018-04-17T14:26:01.891Z,56.00
2018-04-17T14:28:30.143Z,55.80
2018-04-17T14:30:59.189Z,55.90
2018-04-17T14:33:27.580Z,55.90
2018-04-17T14:35:55.816Z,57.40
2018-04-17T14:38:24.065Z,56.00
2018-04-17T14:40:53.083Z,55.40
2018-04-17T14:43:21.377Z,55.40
2018-04-17T14:45:50.347Z,56.00
2018-04-17T14:48:18.596Z,56.00
2018-04-17T14:50:47.613Z,56.00
2018-04-17T14:53:15.877Z,56.00
2018-04-17T14:55:44.888Z,55.50
2018-04-17T14:58:13.179Z,55.40
2018-04-17T15:00:41.433Z,54.90
2018-04-17T15:03:09.689Z,56.00
2018-04-17T15:05:38.695Z,56.20
2018-04-17T15:08:06.950Z,56.20
2018-04-17T15:10:35.282Z,58.00
2018-04-17T15:13:03.556Z,55.80
2018-04-17T15:15:31.845Z,56.10
2018-04-17T15:18:00.101Z,56.90
2018-04-17T15:20:28.352Z,55.80
2018-04-17T15:22:56.600Z,56.60
2018-04-17T15:25:25.656Z,55.60
2018-04-17T15:27:53.904Z,55.60
2018-04-17T15:30:22.206Z,56.00
2018-04-17T15:32:50.463Z,56.60
2018-04-17T15:35:18.749Z,55.90
2018-04-17T15:37:47.000Z,55.40
2018-04-17T15:40:15.244Z,56.00
2018-04-17T15:42:44.296Z,56.20
2018-04-17T15:45:12.545Z,56.10
2018-04-17T15:47:40.798Z,56.70
2018-04-17T15:50:09.808Z,56.80
2018-04-17T15:52:38.060Z,56.80
2018-04-17T15:55:07.103Z,56.50
2018-04-17T15:57:35.353Z,56.50
2018-04-17T16:00:03.600Z,58.40
2018-04-17T16:02:31.876Z,57.60
2018-04-17T16:05:00.119Z,59.40
2018-04-17T16:07:28.375Z,59.00
2018-04-17T16:09:56.651Z,59.00
2018-04-17T16:12:24.951Z,58.40
2018-04-17T16:14:53.215Z,58.60
2018-04-17T16:17:21.452Z,58.80
2018-04-17T16:19:49.703Z,59.10
2018-04-17T16:22:17.949Z,58.80
2018-04-17T16:24:46.203Z,59.10
2018-04-17T16:27:14.467Z,59.80
2018-04-17T16:29:43.470Z,60.80
2018-04-17T16:32:11.720Z,60.80
2018-04-17T16:34:40.732Z,58.60
2018-04-17T16:37:09.020Z,58.60
2018-04-17T16:39:37.275Z,58.10
2018-04-17T16:42:05.525Z,58.90
2018-04-17T16:44:34.547Z,58.50
2018-04-17T16:47:02.793Z,58.50
2018-04-17T16:49:31.804Z,59.40
2018-04-17T16:52:00.058Z,59.40
2018-04-17T16:54:29.099Z,59.80
2018-04-17T16:56:57.346Z,59.50
2018-04-17T16:59:25.596Z,59.80
2018-04-17T17:01:53.851Z,60.20
2018-04-17T17:04:22.096Z,60.60
2018-04-17T17:06:50.361Z,60.30
2018-04-17T17:09:18.616Z,59.90
2018-04-17T17:11:47.632Z,58.90
2018-04-17T17:14:15.897Z,58.90
2018-04-17T17:16:44.158Z,60.00
2018-04-17T17:19:13.201Z,60.90
2018-04-17T17:21:41.452Z,60.90
2018-04-17T17:24:09.696Z,61.50
2018-04-17T17:26:38.718Z,62.90
2018-04-17T17:29:06.965Z,62.90
2018-04-17T17:31:35.986Z,64.80
2018-04-17T17:34:04.284Z,64.80
2018-04-17T17:36:32.532Z,65.30
2018-04-17T17:39:00.842Z,66.00
2018-04-17T17:41:29.045Z,66.40
2018-04-17T17:43:57.310Z,66.60
2018-04-17T17:46:25.564Z,67.60
2018-04-17T17:48:53.830Z,67.30
2018-04-17T17:51:22.083Z,68.00
2018-04-17T17:53:50.344Z,68.20
2018-04-17T17:56:18.699Z,68.40
2018-04-17T17:58:46.954Z,68.50
2018-04-17T18:01:15.208Z,68.50
2018-04-17T18:03:43.518Z,69.30
2018-04-17T18:06:11.740Z,69.40
2018-04-17T18:08:40.030Z,70.30
2018-04-17T18:11:08.303Z,71.20
2018-04-17T18:13:36.568Z,72.00
2018-04-17T18:16:04.860Z,73.00
2018-04-17T18:18:33.143Z,74.40
2018-04-17T18:21:01.414Z,73.90
2018-04-17T18:23:29.959Z,74.20
2018-04-17T18:25:58.208Z,75.20
2018-04-17T18:28:27.248Z,76.80
2018-04-17T18:30:55.505Z,76.70
2018-04-17T18:33:23.808Z,77.70
2018-04-17T18:35:52.085Z,77.80
2018-04-17T18:38:20.342Z,78.20
2018-04-17T18:40:48.674Z,78.70
2018-04-17T18:43:16.884Z,79.40
2018-04-17T18:45:45.154Z,79.90
2018-04-17T18:48:13.473Z,79.90
2018-04-17T18:50:41.723Z,80.50
2018-04-17T18:53:10.007Z,80.90
2018-04-17T18:55:38.289Z,81.00
2018-04-17T18:58:06.544Z,81.30
2018-04-17T19:00:34.839Z,81.60
2018-04-17T19:03:03.087Z,81.70
2018-04-17T19:05:31.354Z,82.10
2018-04-17T19:07:59.603Z,82.60
2018-04-17T19:10:28.677Z,82.90
2018-04-17T19:12:57.027Z,82.90
2018-04-17T19:15:25.323Z,83.20
2018-04-17T19:17:53.585Z,83.50
2018-04-17T19:20:21.848Z,83.10
2018-04-17T19:22:50.097Z,83.40
2018-04-17T19:25:18.413Z,83.20
2018-04-17T19:27:46.672Z,83.20
2018-04-17T19:30:14.935Z,82.90
2018-04-17T19:32:43.201Z,83.20
2018-04-17T19:35:11.484Z,83.20
2018-04-17T19:37:39.745Z,83.60
2018-04-17T19:40:08.779Z,84.20
2018-04-17T19:42:37.096Z,84.20
2018-04-17T19:45:05.342Z,85.20
2018-04-17T19:47:33.714Z,84.80
2018-04-17T19:50:01.966Z,85.10
2018-04-17T19:52:30.286Z,86.00
2018-04-17T19:54:58.537Z,86.40
2018-04-17T19:57:26.796Z,86.60
2018-04-17T19:59:55.088Z,87.00
2018-04-17T20:02:23.343Z,86.90
2018-04-17T20:04:51.644Z,87.30
2018-04-17T20:07:19.916Z,87.60
2018-04-17T20:09:48.175Z,87.40
2018-04-17T20:12:16.433Z,87.20
2018-04-17T20:14:44.697Z,88.00
2018-04-17T20:17:12.977Z,88.50
2018-04-17T20:19:42.107Z,89.00
2018-04-17T20:22:10.364Z,89.00
2018-04-17T20:24:38.630Z,88.70
2018-04-17T20:27:06.880Z,89.20
2018-04-17T20:29:35.935Z,89.70
2018-04-17T20:32:04.213Z,89.70
2018-04-17T20:34:32.476Z,89.70
2018-04-17T20:37:00.738Z,90.00
2018-04-17T20:39:29.009Z,90.00
2018-04-17T20:41:57.255Z,90.00
2018-04-17T20:44:26.293Z,90.20
2018-04-17T20:46:54.552Z,90.20
2018-04-17T20:49:22.837Z,90.20
2018-04-17T20:51:51.104Z,90.20
2018-04-17T20:54:19.360Z,90.30
2018-04-17T20:56:47.633Z,90.30
2018-04-17T20:59:15.883Z,90.40
2018-04-17T21:01:44.240Z,90.40
2018-04-17T21:04:12.501Z,90.50
2018-04-17T21:06:40.765Z,90.40
2018-04-17T21:09:09.016Z,90.60
2018-04-17T21:11:37.280Z,90.70
2018-04-17T21:14:06.311Z,90.90
2018-04-17T21:16:34.564Z,90.90
2018-04-17T21:19:02.832Z,90.90
2018-04-17T21:21:31.853Z,91.30
2018-04-17T21:24:00.109Z,91.30
2018-04-17T21:26:28.385Z,91.20
2018-04-17T21:28:56.701Z,91.10
2018-04-17T21:31:24.972Z,91.30
2018-04-17T21:33:53.223Z,91.30
2018-04-17T21:36:21.478Z,91.50
2018-04-17T21:38:49.740Z,91.50
2018-04-17T21:41:18.765Z,91.70
2018-04-17T21:43:47.025Z,91.70
2018-04-17T21:46:15.342Z,91.70
2018-04-17T21:48:43.615Z,91.50
2018-04-17T21:51:11.894Z,91.70
2018-04-17T21:53:40.153Z,91.60
2018-04-17T21:56:08.414Z,91.90
2018-04-17T21:58:36.678Z,91.70
2018-04-17T22:01:05.015Z,91.80
2018-04-17T22:03:33.262Z,92.00
2018-04-17T22:06:01.536Z,92.10
2018-04-17T22:08:29.796Z,92.00
2018-04-17T22:10:58.052Z,91.70
2018-04-17T22:13:26.313Z,91.60
2018-04-17T22:15:55.333Z,91.30
2018-04-17T22:18:23.627Z,91.40
2018-04-17T22:20:51.931Z,91.20
2018-04-17T22:23:20.184Z,91.10
2018-04-17T22:25:48.447Z,91.20
2018-04-17T22:28:16.704Z,91.10
2018-04-17T22:30:44.963Z,91.00
2018-04-17T22:33:13.988Z,90.70
2018-04-17T22:35:42.249Z,90.70
2018-04-17T22:38:10.495Z,90.70
2018-04-17T22:40:39.540Z,90.10
2018-04-17T22:43:07.800Z,90.10
2018-04-17T22:45:36.069Z,89.60
2018-04-17T22:48:04.319Z,89.40
2018-04-17T22:50:33.362Z,89.70
2018-04-17T22:53:01.613Z,89.70
2018-04-17T22:55:29.876Z,89.30
2018-04-17T22:57:58.139Z,88.60
2018-04-17T23:00:27.174Z,86.20
2018-04-17T23:02:55.428Z,86.10
2018-04-17T23:05:23.721Z,85.00
2018-04-17T23:07:51.968Z,84.10
2018-04-17T23:10:21.028Z,83.00
2018-04-17T23:12:50.823Z,82.40
2018-04-17T23:15:19.079Z,82.30
2018-04-17T23:17:47.353Z,81.90
2018-04-17T23:20:15.644Z,81.50
2018-04-17T23:22:43.920Z,80.90
2018-04-17T23:25:12.199Z,80.60
2018-04-17T23:27:40.481Z,80.20
2018-04-17T23:30:08.748Z,80.00
2018-04-17T23:32:37.039Z,80.00
2018-04-17T23:35:05.287Z,80.00
2018-04-17T23:37:33.572Z,80.10
2018-04-17T23:40:01.842Z,80.10
2018-04-17T23:42:30.137Z,79.60
2018-04-17T23:44:58.398Z,79.40
2018-04-17T23:47:26.662Z,79.30
2018-04-17T23:49:54.945Z,79.60
2018-04-17T23:52:23.211Z,79.90
2018-04-17T23:54:51.468Z,79.70
2018-04-17T23:57:19.782Z,79.50
2018-04-17T23:59:48.037Z,79.40
